sensor_id;sensor_type;location;lat;lon;timestamp;temperature;humidity
51863;DHT22;37900;52.996;6.278;2022-08-25T00:01:29;21.80;99.90
51863;DHT22;37900;52.996;6.278;2022-08-25T00:03:56;21.80;99.90
51863;DHT22;37900;52.996;6.278;2022-08-25T00:06:22;21.80;99.90
51863;DHT22;37900;52.996;6.278;2022-08-25T00:08:48;21.80;99.90
51863;DHT22;37900;52.996;6.278;2022-08-25T00:11:21;21.80;99.90
51863;DHT22;37900;52.996;6.278;2022-08-25T00:13:50;21.80;99.90
51863;DHT22;37900;52.996;6.278;2022-08-25T00:16:18;21.80;99.90
51863;DHT22;37900;52.996;6.278;2022-08-25T00:18:47;21.80;99.90
51863;DHT22;37900;52.996;6.278;2022-08-25T00:21:14;21.80;99.90
51863;DHT22;37900;52.996;6.278;2022-08-25T00:23:41;21.80;99.90
51863;DHT22;37900;52.996;6.278;2022-08-25T00:26:08;21.80;99.90
51863;DHT22;37900;52.996;6.278;2022-08-25T00:28:35;21.80;99.90
51863;DHT22;37900;52.996;6.278;2022-08-25T00:31:01;21.80;99.90
51863;DHT22;37900;52.996;6.278;2022-08-25T00:33:29;21.80;99.90
51863;DHT22;37900;52.996;6.278;2022-08-25T00:35:58;21.80;99.90
51863;DHT22;37900;52.996;6.278;2022-08-25T00:38:25;21.80;99.90
51863;DHT22;37900;52.996;6.278;2022-08-25T00:40:51;21.80;99.90
51863;DHT22;37900;52.996;6.278;2022-08-25T00:43:54;21.80;99.90
51863;DHT22;37900;52.996;6.278;2022-08-25T00:46:47;21.80;99.90
51863;DHT22;37900;52.996;6.278;2022-08-25T00:49:39;21.80;99.90
51863;DHT22;37900;52.996;6.278;2022-08-25T00:52:10;21.80;99.90
51863;DHT22;37900;52.996;6.278;2022-08-25T00:57:37;21.80;99.90
51863;DHT22;37900;52.996;6.278;2022-08-25T01:00:12;21.80;99.90
51863;DHT22;37900;52.996;6.278;2022-08-25T01:02:39;21.80;99.90
51863;DHT22;37900;52.996;6.278;2022-08-25T01:05:06;21.80;99.90
51863;DHT22;37900;52.996;6.278;2022-08-25T01:07:32;21.80;99.90
51863;DHT22;37900;52.996;6.278;2022-08-25T01:09:58;21.80;99.90
51863;DHT22;37900;52.996;6.278;2022-08-25T01:12:25;21.80;99.90
51863;DHT22;37900;52.996;6.278;2022-08-25T01:14:52;21.80;99.90
51863;DHT22;37900;52.996;6.278;2022-08-25T01:17:18;21.80;99.90
51863;DHT22;37900;52.996;6.278;2022-08-25T01:19:45;21.80;99.90
51863;DHT22;37900;52.996;6.278;2022-08-25T01:22:11;21.80;99.90
51863;DHT22;37900;52.996;6.278;2022-08-25T01:24:55;21.80;99.90
51863;DHT22;37900;52.996;6.278;2022-08-25T01:27:22;21.80;99.90
51863;DHT22;37900;52.996;6.278;2022-08-25T01:29:48;21.80;99.90
51863;DHT22;37900;52.996;6.278;2022-08-25T01:32:14;21.80;99.90
51863;DHT22;37900;52.996;6.278;2022-08-25T01:34:42;21.80;99.90
51863;DHT22;37900;52.996;6.278;2022-08-25T01:37:10;21.80;99.90
51863;DHT22;37900;52.996;6.278;2022-08-25T01:39:36;21.80;99.90
51863;DHT22;37900;52.996;6.278;2022-08-25T01:44:33;21.80;99.90
51863;DHT22;37900;52.996;6.278;2022-08-25T01:47:01;21.80;99.90
51863;DHT22;37900;52.996;6.278;2022-08-25T01:49:27;21.80;99.90
51863;DHT22;37900;52.996;6.278;2022-08-25T01:52:16;21.80;99.90
51863;DHT22;37900;52.996;6.278;2022-08-25T01:54:43;21.80;99.90
51863;DHT22;37900;52.996;6.278;2022-08-25T01:57:09;21.80;99.90
51863;DHT22;37900;52.996;6.278;2022-08-25T01:59:35;21.70;99.90
51863;DHT22;37900;52.996;6.278;2022-08-25T02:02:02;21.70;99.90
51863;DHT22;37900;52.996;6.278;2022-08-25T02:04:28;21.70;99.90
51863;DHT22;37900;52.996;6.278;2022-08-25T02:06:57;21.70;99.90
51863;DHT22;37900;52.996;6.278;2022-08-25T02:09:23;21.80;99.90
51863;DHT22;37900;52.996;6.278;2022-08-25T02:11:49;21.70;99.90
51863;DHT22;37900;52.996;6.278;2022-08-25T02:14:16;21.80;99.90
51863;DHT22;37900;52.996;6.278;2022-08-25T02:16:47;21.70;99.90
51863;DHT22;37900;52.996;6.278;2022-08-25T02:19:14;21.70;99.90
51863;DHT22;37900;52.996;6.278;2022-08-25T02:21:40;21.70;99.90
51863;DHT22;37900;52.996;6.278;2022-08-25T02:24:06;21.70;99.90
51863;DHT22;37900;52.996;6.278;2022-08-25T02:26:33;21.70;99.90
51863;DHT22;37900;52.996;6.278;2022-08-25T02:29:00;21.70;99.90
51863;DHT22;37900;52.996;6.278;2022-08-25T02:31:27;21.70;99.90
51863;DHT22;37900;52.996;6.278;2022-08-25T02:33:54;21.70;99.90
51863;DHT22;37900;52.996;6.278;2022-08-25T02:36:20;21.70;99.90
51863;DHT22;37900;52.996;6.278;2022-08-25T02:38:46;21.70;99.90
51863;DHT22;37900;52.996;6.278;2022-08-25T02:41:17;21.70;99.90
51863;DHT22;37900;52.996;6.278;2022-08-25T02:43:43;21.70;99.90
51863;DHT22;37900;52.996;6.278;2022-08-25T02:46:11;21.70;99.90
51863;DHT22;37900;52.996;6.278;2022-08-25T02:48:37;21.70;99.90
51863;DHT22;37900;52.996;6.278;2022-08-25T02:51:04;21.70;99.90
51863;DHT22;37900;52.996;6.278;2022-08-25T02:53:32;21.70;99.90
51863;DHT22;37900;52.996;6.278;2022-08-25T02:55:58;21.70;99.90
51863;DHT22;37900;52.996;6.278;2022-08-25T02:58:24;21.70;99.90
51863;DHT22;37900;52.996;6.278;2022-08-25T03:00:51;21.70;99.90
51863;DHT22;37900;52.996;6.278;2022-08-25T03:03:18;21.70;99.90
51863;DHT22;37900;52.996;6.278;2022-08-25T03:05:44;21.70;99.90
51863;DHT22;37900;52.996;6.278;2022-08-25T03:08:11;21.70;99.90
51863;DHT22;37900;52.996;6.278;2022-08-25T03:10:37;21.70;99.90
51863;DHT22;37900;52.996;6.278;2022-08-25T03:13:03;21.70;99.90
51863;DHT22;37900;52.996;6.278;2022-08-25T03:15:31;21.70;99.90
51863;DHT22;37900;52.996;6.278;2022-08-25T03:17:56;21.70;99.90
51863;DHT22;37900;52.996;6.278;2022-08-25T03:20:24;21.70;99.90
51863;DHT22;37900;52.996;6.278;2022-08-25T03:22:50;21.70;99.90
51863;DHT22;37900;52.996;6.278;2022-08-25T03:25:17;21.70;99.90
51863;DHT22;37900;52.996;6.278;2022-08-25T03:28:02;21.70;99.90
51863;DHT22;37900;52.996;6.278;2022-08-25T03:30:29;21.70;99.90
51863;DHT22;37900;52.996;6.278;2022-08-25T03:32:55;21.70;99.90
51863;DHT22;37900;52.996;6.278;2022-08-25T03:35:21;21.70;99.90
51863;DHT22;37900;52.996;6.278;2022-08-25T03:37:47;21.70;99.90
51863;DHT22;37900;52.996;6.278;2022-08-25T03:40:15;21.70;99.90
51863;DHT22;37900;52.996;6.278;2022-08-25T03:42:43;21.70;99.90
51863;DHT22;37900;52.996;6.278;2022-08-25T03:45:10;21.70;99.90
51863;DHT22;37900;52.996;6.278;2022-08-25T03:47:39;21.70;99.90
51863;DHT22;37900;52.996;6.278;2022-08-25T03:50:07;21.70;99.90
51863;DHT22;37900;52.996;6.278;2022-08-25T03:52:34;21.70;99.90
51863;DHT22;37900;52.996;6.278;2022-08-25T03:55:00;21.70;99.90
51863;DHT22;37900;52.996;6.278;2022-08-25T03:57:27;21.70;99.90
51863;DHT22;37900;52.996;6.278;2022-08-25T03:59:53;21.70;99.90
51863;DHT22;37900;52.996;6.278;2022-08-25T04:02:18;21.70;99.90
51863;DHT22;37900;52.996;6.278;2022-08-25T04:04:44;21.70;99.90
51863;DHT22;37900;52.996;6.278;2022-08-25T04:07:10;21.70;99.90
51863;DHT22;37900;52.996;6.278;2022-08-25T04:09:36;21.70;99.90
51863;DHT22;37900;52.996;6.278;2022-08-25T04:12:02;21.70;99.90
51863;DHT22;37900;52.996;6.278;2022-08-25T04:14:28;21.60;99.90
51863;DHT22;37900;52.996;6.278;2022-08-25T04:16:54;21.60;99.90
51863;DHT22;37900;52.996;6.278;2022-08-25T04:19:19;21.70;99.90
51863;DHT22;37900;52.996;6.278;2022-08-25T04:21:45;21.60;99.90
51863;DHT22;37900;52.996;6.278;2022-08-25T04:24:12;21.60;99.90
51863;DHT22;37900;52.996;6.278;2022-08-25T04:26:41;21.70;99.90
51863;DHT22;37900;52.996;6.278;2022-08-25T04:29:08;21.70;99.90
51863;DHT22;37900;52.996;6.278;2022-08-25T04:31:37;21.60;99.90
51863;DHT22;37900;52.996;6.278;2022-08-25T04:34:04;21.60;99.90
51863;DHT22;37900;52.996;6.278;2022-08-25T04:36:30;21.60;99.90
51863;DHT22;37900;52.996;6.278;2022-08-25T04:38:57;21.60;99.90
51863;DHT22;37900;52.996;6.278;2022-08-25T04:41:23;21.70;99.90
51863;DHT22;37900;52.996;6.278;2022-08-25T04:43:50;21.60;99.90
51863;DHT22;37900;52.996;6.278;2022-08-25T04:46:21;21.60;99.90
51863;DHT22;37900;52.996;6.278;2022-08-25T04:48:49;21.60;99.90
51863;DHT22;37900;52.996;6.278;2022-08-25T04:51:18;21.60;99.90
51863;DHT22;37900;52.996;6.278;2022-08-25T04:53:44;21.60;99.90
51863;DHT22;37900;52.996;6.278;2022-08-25T04:56:13;21.60;99.90
51863;DHT22;37900;52.996;6.278;2022-08-25T04:58:40;21.60;99.90
51863;DHT22;37900;52.996;6.278;2022-08-25T05:01:12;21.60;99.90
51863;DHT22;37900;52.996;6.278;2022-08-25T05:03:42;21.60;99.90
51863;DHT22;37900;52.996;6.278;2022-08-25T05:06:08;21.60;99.90
51863;DHT22;37900;52.996;6.278;2022-08-25T05:08:34;21.60;99.90
51863;DHT22;37900;52.996;6.278;2022-08-25T05:11:08;21.60;99.90
51863;DHT22;37900;52.996;6.278;2022-08-25T05:13:35;21.60;99.90
51863;DHT22;37900;52.996;6.278;2022-08-25T05:16:01;21.60;99.90
51863;DHT22;37900;52.996;6.278;2022-08-25T05:18:30;21.60;99.90
51863;DHT22;37900;52.996;6.278;2022-08-25T05:21:00;21.60;99.90
51863;DHT22;37900;52.996;6.278;2022-08-25T05:23:26;21.60;99.90
51863;DHT22;37900;52.996;6.278;2022-08-25T05:25:52;21.60;99.90
51863;DHT22;37900;52.996;6.278;2022-08-25T05:28:19;21.60;99.90
51863;DHT22;37900;52.996;6.278;2022-08-25T05:30:45;21.60;99.90
51863;DHT22;37900;52.996;6.278;2022-08-25T05:33:14;21.60;99.90
51863;DHT22;37900;52.996;6.278;2022-08-25T05:35:41;21.60;99.90
51863;DHT22;37900;52.996;6.278;2022-08-25T05:38:07;21.60;99.90
51863;DHT22;37900;52.996;6.278;2022-08-25T05:40:35;21.60;99.90
51863;DHT22;37900;52.996;6.278;2022-08-25T05:43:00;21.60;99.90
51863;DHT22;37900;52.996;6.278;2022-08-25T05:45:26;21.60;99.90
51863;DHT22;37900;52.996;6.278;2022-08-25T05:47:52;21.60;99.90
51863;DHT22;37900;52.996;6.278;2022-08-25T05:50:18;21.60;99.90
51863;DHT22;37900;52.996;6.278;2022-08-25T05:52:44;21.60;99.90
51863;DHT22;37900;52.996;6.278;2022-08-25T05:55:10;21.60;99.90
51863;DHT22;37900;52.996;6.278;2022-08-25T05:57:36;21.60;99.90
51863;DHT22;37900;52.996;6.278;2022-08-25T06:00:05;21.60;99.90
51863;DHT22;37900;52.996;6.278;2022-08-25T06:02:31;21.60;99.90
51863;DHT22;37900;52.996;6.278;2022-08-25T06:05:18;21.60;99.90
51863;DHT22;37900;52.996;6.278;2022-08-25T06:07:46;21.60;99.90
51863;DHT22;37900;52.996;6.278;2022-08-25T06:10:12;21.70;99.90
51863;DHT22;37900;52.996;6.278;2022-08-25T06:12:41;21.70;99.90
51863;DHT22;37900;52.996;6.278;2022-08-25T06:15:13;21.70;99.90
51863;DHT22;37900;52.996;6.278;2022-08-25T06:17:40;21.70;99.90
51863;DHT22;37900;52.996;6.278;2022-08-25T06:20:21;21.70;99.90
51863;DHT22;37900;52.996;6.278;2022-08-25T06:22:48;21.70;99.90
51863;DHT22;37900;52.996;6.278;2022-08-25T06:25:16;21.70;99.90
51863;DHT22;37900;52.996;6.278;2022-08-25T06:27:42;21.80;99.90
51863;DHT22;37900;52.996;6.278;2022-08-25T06:30:11;21.70;99.90
51863;DHT22;37900;52.996;6.278;2022-08-25T06:32:40;21.70;99.90
51863;DHT22;37900;52.996;6.278;2022-08-25T06:35:10;21.70;99.90
51863;DHT22;37900;52.996;6.278;2022-08-25T06:37:36;21.80;99.90
51863;DHT22;37900;52.996;6.278;2022-08-25T06:40:05;21.80;99.90
51863;DHT22;37900;52.996;6.278;2022-08-25T06:42:34;21.80;99.90
51863;DHT22;37900;52.996;6.278;2022-08-25T06:44:59;21.80;99.90
51863;DHT22;37900;52.996;6.278;2022-08-25T06:47:26;21.80;99.90
51863;DHT22;37900;52.996;6.278;2022-08-25T06:49:52;21.80;99.90
51863;DHT22;37900;52.996;6.278;2022-08-25T06:52:18;21.80;99.90
51863;DHT22;37900;52.996;6.278;2022-08-25T06:54:43;21.80;99.90
51863;DHT22;37900;52.996;6.278;2022-08-25T06:57:09;21.80;99.90
51863;DHT22;37900;52.996;6.278;2022-08-25T06:59:35;21.80;99.90
51863;DHT22;37900;52.996;6.278;2022-08-25T07:02:03;21.80;99.90
51863;DHT22;37900;52.996;6.278;2022-08-25T07:04:30;21.80;99.90
51863;DHT22;37900;52.996;6.278;2022-08-25T07:06:55;21.80;99.90
51863;DHT22;37900;52.996;6.278;2022-08-25T07:09:21;21.80;99.90
51863;DHT22;37900;52.996;6.278;2022-08-25T07:11:47;21.80;99.90
51863;DHT22;37900;52.996;6.278;2022-08-25T07:14:14;21.80;99.90
51863;DHT22;37900;52.996;6.278;2022-08-25T07:16:41;21.80;99.90
51863;DHT22;37900;52.996;6.278;2022-08-25T07:19:07;21.80;99.90
51863;DHT22;37900;52.996;6.278;2022-08-25T07:21:35;21.80;99.90
51863;DHT22;37900;52.996;6.278;2022-08-25T07:24:05;21.80;99.90
51863;DHT22;37900;52.996;6.278;2022-08-25T07:26:32;21.80;99.90
51863;DHT22;37900;52.996;6.278;2022-08-25T07:29:13;21.80;99.90
51863;DHT22;37900;52.996;6.278;2022-08-25T07:31:39;21.80;99.90
51863;DHT22;37900;52.996;6.278;2022-08-25T07:34:06;21.80;99.90
51863;DHT22;37900;52.996;6.278;2022-08-25T07:36:50;21.80;99.90
51863;DHT22;37900;52.996;6.278;2022-08-25T07:39:15;21.80;99.90
51863;DHT22;37900;52.996;6.278;2022-08-25T07:41:42;21.80;99.90
51863;DHT22;37900;52.996;6.278;2022-08-25T07:44:09;21.80;99.90
51863;DHT22;37900;52.996;6.278;2022-08-25T07:46:36;21.80;99.90
51863;DHT22;37900;52.996;6.278;2022-08-25T07:49:02;21.80;99.90
51863;DHT22;37900;52.996;6.278;2022-08-25T07:51:28;21.80;99.90
51863;DHT22;37900;52.996;6.278;2022-08-25T07:53:53;21.80;99.90
51863;DHT22;37900;52.996;6.278;2022-08-25T07:56:19;21.80;99.90
51863;DHT22;37900;52.996;6.278;2022-08-25T07:58:46;21.80;99.90
51863;DHT22;37900;52.996;6.278;2022-08-25T08:01:15;21.80;99.90
51863;DHT22;37900;52.996;6.278;2022-08-25T08:03:41;21.80;99.90
51863;DHT22;37900;52.996;6.278;2022-08-25T08:06:08;21.80;99.90
51863;DHT22;37900;52.996;6.278;2022-08-25T08:08:39;21.80;99.90
51863;DHT22;37900;52.996;6.278;2022-08-25T08:11:14;21.80;99.90
51863;DHT22;37900;52.996;6.278;2022-08-25T08:13:40;21.80;99.90
51863;DHT22;37900;52.996;6.278;2022-08-25T08:16:10;21.80;99.90
51863;DHT22;37900;52.996;6.278;2022-08-25T08:18:36;21.80;99.90
51863;DHT22;37900;52.996;6.278;2022-08-25T08:21:02;21.80;99.90
51863;DHT22;37900;52.996;6.278;2022-08-25T08:23:28;21.80;99.90
51863;DHT22;37900;52.996;6.278;2022-08-25T08:25:55;21.80;99.90
51863;DHT22;37900;52.996;6.278;2022-08-25T08:28:21;21.80;99.90
51863;DHT22;37900;52.996;6.278;2022-08-25T08:30:47;21.80;99.90
51863;DHT22;37900;52.996;6.278;2022-08-25T08:33:13;21.80;99.90
51863;DHT22;37900;52.996;6.278;2022-08-25T08:35:40;21.80;99.90
51863;DHT22;37900;52.996;6.278;2022-08-25T08:38:05;21.80;99.90
51863;DHT22;37900;52.996;6.278;2022-08-25T08:40:33;21.80;99.90
51863;DHT22;37900;52.996;6.278;2022-08-25T08:43:09;21.80;99.90
51863;DHT22;37900;52.996;6.278;2022-08-25T08:48:43;21.80;99.90
51863;DHT22;37900;52.996;6.278;2022-08-25T08:53:47;21.80;99.90
51863;DHT22;37900;52.996;6.278;2022-08-25T08:56:21;21.80;99.90
51863;DHT22;37900;52.996;6.278;2022-08-25T08:59:11;21.80;99.90
51863;DHT22;37900;52.996;6.278;2022-08-25T09:01:57;21.80;99.90
51863;DHT22;37900;52.996;6.278;2022-08-25T09:04:37;21.80;99.90
51863;DHT22;37900;52.996;6.278;2022-08-25T09:07:23;21.80;99.90
51863;DHT22;37900;52.996;6.278;2022-08-25T09:09:52;21.80;99.90
51863;DHT22;37900;52.996;6.278;2022-08-25T09:15:32;21.80;99.90
51863;DHT22;37900;52.996;6.278;2022-08-25T09:18:28;21.80;99.90
51863;DHT22;37900;52.996;6.278;2022-08-25T09:21:25;21.80;99.90
51863;DHT22;37900;52.996;6.278;2022-08-25T09:24:43;21.80;99.90
51863;DHT22;37900;52.996;6.278;2022-08-25T09:30:17;21.80;99.90
51863;DHT22;37900;52.996;6.278;2022-08-25T09:32:52;21.80;99.90
51863;DHT22;37900;52.996;6.278;2022-08-25T09:35:23;21.80;99.90
51863;DHT22;37900;52.996;6.278;2022-08-25T09:38:08;21.80;99.90
51863;DHT22;37900;52.996;6.278;2022-08-25T09:40:38;21.80;99.90
51863;DHT22;37900;52.996;6.278;2022-08-25T09:43:37;21.80;99.90
51863;DHT22;37900;52.996;6.278;2022-08-25T09:46:09;21.80;99.90
51863;DHT22;37900;52.996;6.278;2022-08-25T09:48:53;21.80;99.90
51863;DHT22;37900;52.996;6.278;2022-08-25T09:51:31;21.80;99.90
51863;DHT22;37900;52.996;6.278;2022-08-25T09:56:54;21.80;99.90
51863;DHT22;37900;52.996;6.278;2022-08-25T09:59:33;21.80;99.90
51863;DHT22;37900;52.996;6.278;2022-08-25T10:04:27;21.80;99.90
51863;DHT22;37900;52.996;6.278;2022-08-25T10:06:54;21.80;99.90
51863;DHT22;37900;52.996;6.278;2022-08-25T10:09:39;21.80;99.90
51863;DHT22;37900;52.996;6.278;2022-08-25T10:14:54;21.80;99.90
51863;DHT22;37900;52.996;6.278;2022-08-25T10:17:31;21.80;99.90
51863;DHT22;37900;52.996;6.278;2022-08-25T10:22:39;21.80;99.90
51863;DHT22;37900;52.996;6.278;2022-08-25T10:25:08;21.70;99.90
51863;DHT22;37900;52.996;6.278;2022-08-25T10:30:19;21.80;99.90
51863;DHT22;37900;52.996;6.278;2022-08-25T10:35:19;21.80;99.90
51863;DHT22;37900;52.996;6.278;2022-08-25T10:40:37;21.90;99.90
51863;DHT22;37900;52.996;6.278;2022-08-25T10:43:32;21.80;99.90
51863;DHT22;37900;52.996;6.278;2022-08-25T10:49:01;21.80;99.90
51863;DHT22;37900;52.996;6.278;2022-08-25T10:51:32;21.80;99.90
51863;DHT22;37900;52.996;6.278;2022-08-25T11:00:04;21.80;99.90
51863;DHT22;37900;52.996;6.278;2022-08-25T11:06:08;21.80;99.90
51863;DHT22;37900;52.996;6.278;2022-08-25T11:11:05;21.80;99.90
51863;DHT22;37900;52.996;6.278;2022-08-25T11:14:02;21.80;99.90
51863;DHT22;37900;52.996;6.278;2022-08-25T11:16:37;21.80;99.90
51863;DHT22;37900;52.996;6.278;2022-08-25T11:21:56;21.80;99.90
51863;DHT22;37900;52.996;6.278;2022-08-25T11:27:14;21.90;99.90
51863;DHT22;37900;52.996;6.278;2022-08-25T11:29:44;21.90;99.90
51863;DHT22;37900;52.996;6.278;2022-08-25T11:32:13;21.80;99.90
51863;DHT22;37900;52.996;6.278;2022-08-25T11:34:39;21.90;99.90
51863;DHT22;37900;52.996;6.278;2022-08-25T11:37:20;21.80;99.90
51863;DHT22;37900;52.996;6.278;2022-08-25T11:53:29;21.90;99.90
51863;DHT22;37900;52.996;6.278;2022-08-25T11:56:05;21.90;99.90
51863;DHT22;37900;52.996;6.278;2022-08-25T11:58:40;21.90;99.80
51863;DHT22;37900;52.996;6.278;2022-08-25T12:04:13;21.90;99.70
51863;DHT22;37900;52.996;6.278;2022-08-25T12:10:07;21.90;99.60
51863;DHT22;37900;52.996;6.278;2022-08-25T12:23:45;21.90;99.40
51863;DHT22;37900;52.996;6.278;2022-08-25T12:26:37;21.90;99.30
51863;DHT22;37900;52.996;6.278;2022-08-25T12:29:32;21.90;99.40
51863;DHT22;37900;52.996;6.278;2022-08-25T12:37:24;21.90;99.40
51863;DHT22;37900;52.996;6.278;2022-08-25T12:42:29;21.90;99.40
51863;DHT22;37900;52.996;6.278;2022-08-25T12:47:54;21.90;99.30
51863;DHT22;37900;52.996;6.278;2022-08-25T12:50:43;21.90;99.30
51863;DHT22;37900;52.996;6.278;2022-08-25T12:53:34;21.90;99.30
51863;DHT22;37900;52.996;6.278;2022-08-25T12:56:06;21.90;99.30
51863;DHT22;37900;52.996;6.278;2022-08-25T12:59:30;21.90;99.30
51863;DHT22;37900;52.996;6.278;2022-08-25T13:07:02;21.90;99.40
51863;DHT22;37900;52.996;6.278;2022-08-25T13:15:46;21.90;99.40
51863;DHT22;37900;52.996;6.278;2022-08-25T13:18:26;21.90;99.40
51863;DHT22;37900;52.996;6.278;2022-08-25T13:21:19;21.90;99.40
51863;DHT22;37900;52.996;6.278;2022-08-25T13:23:51;21.90;99.40
51863;DHT22;37900;52.996;6.278;2022-08-25T13:26:26;21.90;99.40
51863;DHT22;37900;52.996;6.278;2022-08-25T13:29:12;22.00;99.40
51863;DHT22;37900;52.996;6.278;2022-08-25T13:31:51;22.00;99.30
51863;DHT22;37900;52.996;6.278;2022-08-25T13:34:22;21.90;99.20
51863;DHT22;37900;52.996;6.278;2022-08-25T13:36:49;22.00;99.20
51863;DHT22;37900;52.996;6.278;2022-08-25T13:39:34;22.00;99.20
51863;DHT22;37900;52.996;6.278;2022-08-25T13:42:02;21.90;99.10
51863;DHT22;37900;52.996;6.278;2022-08-25T13:44:33;22.00;99.10
51863;DHT22;37900;52.996;6.278;2022-08-25T13:47:16;22.00;99.10
51863;DHT22;37900;52.996;6.278;2022-08-25T13:50:36;21.90;99.00
51863;DHT22;37900;52.996;6.278;2022-08-25T13:57:57;22.00;98.80
51863;DHT22;37900;52.996;6.278;2022-08-25T14:00:42;22.00;98.70
51863;DHT22;37900;52.996;6.278;2022-08-25T14:03:32;21.90;98.50
51863;DHT22;37900;52.996;6.278;2022-08-25T14:14:07;22.00;98.40
51863;DHT22;37900;52.996;6.278;2022-08-25T14:19:15;22.00;98.30
51863;DHT22;37900;52.996;6.278;2022-08-25T14:21:41;22.00;98.30
51863;DHT22;37900;52.996;6.278;2022-08-25T14:24:07;22.00;98.30
51863;DHT22;37900;52.996;6.278;2022-08-25T14:26:33;22.00;98.20
51863;DHT22;37900;52.996;6.278;2022-08-25T14:28:59;22.00;98.20
51863;DHT22;37900;52.996;6.278;2022-08-25T14:31:26;22.00;98.20
51863;DHT22;37900;52.996;6.278;2022-08-25T14:33:53;22.00;98.20
51863;DHT22;37900;52.996;6.278;2022-08-25T14:36:20;22.00;98.10
51863;DHT22;37900;52.996;6.278;2022-08-25T14:38:45;22.00;98.00
51863;DHT22;37900;52.996;6.278;2022-08-25T14:41:11;22.00;98.00
51863;DHT22;37900;52.996;6.278;2022-08-25T14:43:37;22.00;98.00
51863;DHT22;37900;52.996;6.278;2022-08-25T14:46:10;22.00;98.00
51863;DHT22;37900;52.996;6.278;2022-08-25T14:48:41;22.00;98.00
51863;DHT22;37900;52.996;6.278;2022-08-25T14:51:07;22.00;98.00
51863;DHT22;37900;52.996;6.278;2022-08-25T14:53:34;22.00;98.00
51863;DHT22;37900;52.996;6.278;2022-08-25T14:56:00;22.00;98.00
51863;DHT22;37900;52.996;6.278;2022-08-25T14:58:26;22.00;98.00
51863;DHT22;37900;52.996;6.278;2022-08-25T15:00:53;22.00;98.00
51863;DHT22;37900;52.996;6.278;2022-08-25T15:03:29;22.00;98.00
51863;DHT22;37900;52.996;6.278;2022-08-25T15:05:55;22.00;98.00
51863;DHT22;37900;52.996;6.278;2022-08-25T15:08:21;22.00;98.00
51863;DHT22;37900;52.996;6.278;2022-08-25T15:11:10;22.00;98.00
51863;DHT22;37900;52.996;6.278;2022-08-25T15:13:36;22.00;98.00
51863;DHT22;37900;52.996;6.278;2022-08-25T15:16:02;22.00;98.00
51863;DHT22;37900;52.996;6.278;2022-08-25T15:18:28;22.00;97.90
51863;DHT22;37900;52.996;6.278;2022-08-25T15:20:54;22.00;97.90
51863;DHT22;37900;52.996;6.278;2022-08-25T15:23:20;22.00;97.80
51863;DHT22;37900;52.996;6.278;2022-08-25T15:25:47;22.00;97.80
51863;DHT22;37900;52.996;6.278;2022-08-25T15:28:15;22.00;97.70
51863;DHT22;37900;52.996;6.278;2022-08-25T15:30:41;22.00;97.70
51863;DHT22;37900;52.996;6.278;2022-08-25T15:33:07;22.00;97.60
51863;DHT22;37900;52.996;6.278;2022-08-25T15:35:33;22.00;97.60
51863;DHT22;37900;52.996;6.278;2022-08-25T15:37:59;22.00;97.60
51863;DHT22;37900;52.996;6.278;2022-08-25T15:40:27;22.00;97.60
51863;DHT22;37900;52.996;6.278;2022-08-25T15:42:52;22.10;97.50
51863;DHT22;37900;52.996;6.278;2022-08-25T15:45:18;22.10;97.50
51863;DHT22;37900;52.996;6.278;2022-08-25T15:47:45;22.10;97.50
51863;DHT22;37900;52.996;6.278;2022-08-25T15:50:16;22.00;97.40
51863;DHT22;37900;52.996;6.278;2022-08-25T15:52:43;22.10;97.40
51863;DHT22;37900;52.996;6.278;2022-08-25T15:55:13;22.10;97.40
51863;DHT22;37900;52.996;6.278;2022-08-25T15:57:39;22.10;97.50
51863;DHT22;37900;52.996;6.278;2022-08-25T16:00:07;22.10;97.40
51863;DHT22;37900;52.996;6.278;2022-08-25T16:02:36;22.10;97.40
51863;DHT22;37900;52.996;6.278;2022-08-25T16:05:02;22.10;97.40
51863;DHT22;37900;52.996;6.278;2022-08-25T16:07:28;22.10;97.40
51863;DHT22;37900;52.996;6.278;2022-08-25T16:09:57;22.10;97.40
51863;DHT22;37900;52.996;6.278;2022-08-25T16:12:24;22.10;97.40
51863;DHT22;37900;52.996;6.278;2022-08-25T16:14:50;22.10;97.30
51863;DHT22;37900;52.996;6.278;2022-08-25T16:17:17;22.10;97.30
51863;DHT22;37900;52.996;6.278;2022-08-25T16:19:44;22.10;97.30
51863;DHT22;37900;52.996;6.278;2022-08-25T16:22:10;22.10;97.30
51863;DHT22;37900;52.996;6.278;2022-08-25T16:24:38;22.10;97.30
51863;DHT22;37900;52.996;6.278;2022-08-25T16:27:05;22.10;97.30
51863;DHT22;37900;52.996;6.278;2022-08-25T16:29:33;22.10;97.30
51863;DHT22;37900;52.996;6.278;2022-08-25T16:31:59;22.10;97.40
51863;DHT22;37900;52.996;6.278;2022-08-25T16:34:25;22.10;97.40
51863;DHT22;37900;52.996;6.278;2022-08-25T16:36:52;22.10;97.40
51863;DHT22;37900;52.996;6.278;2022-08-25T16:39:19;22.10;97.40
51863;DHT22;37900;52.996;6.278;2022-08-25T16:41:45;22.10;97.40
51863;DHT22;37900;52.996;6.278;2022-08-25T16:44:11;22.10;97.40
51863;DHT22;37900;52.996;6.278;2022-08-25T16:46:37;22.10;97.40
51863;DHT22;37900;52.996;6.278;2022-08-25T16:49:05;22.00;97.40
51863;DHT22;37900;52.996;6.278;2022-08-25T16:51:31;22.10;97.40
51863;DHT22;37900;52.996;6.278;2022-08-25T16:53:57;22.10;97.40
51863;DHT22;37900;52.996;6.278;2022-08-25T16:56:41;22.10;97.30
51863;DHT22;37900;52.996;6.278;2022-08-25T16:59:09;22.10;97.30
51863;DHT22;37900;52.996;6.278;2022-08-25T17:01:36;22.10;97.20
51863;DHT22;37900;52.996;6.278;2022-08-25T17:04:03;22.10;97.20
51863;DHT22;37900;52.996;6.278;2022-08-25T17:06:34;22.10;97.20
51863;DHT22;37900;52.996;6.278;2022-08-25T17:09:01;22.10;97.10
51863;DHT22;37900;52.996;6.278;2022-08-25T17:11:29;22.10;97.10
51863;DHT22;37900;52.996;6.278;2022-08-25T17:13:57;22.10;97.10
51863;DHT22;37900;52.996;6.278;2022-08-25T17:16:31;22.10;97.10
51863;DHT22;37900;52.996;6.278;2022-08-25T17:18:59;22.10;97.00
51863;DHT22;37900;52.996;6.278;2022-08-25T17:21:26;22.10;97.10
51863;DHT22;37900;52.996;6.278;2022-08-25T17:23:56;22.10;97.00
51863;DHT22;37900;52.996;6.278;2022-08-25T17:26:24;22.10;97.00
51863;DHT22;37900;52.996;6.278;2022-08-25T17:28:50;22.10;97.00
51863;DHT22;37900;52.996;6.278;2022-08-25T17:31:17;22.10;97.10
51863;DHT22;37900;52.996;6.278;2022-08-25T17:33:44;22.10;97.10
51863;DHT22;37900;52.996;6.278;2022-08-25T17:36:10;22.20;97.10
51863;DHT22;37900;52.996;6.278;2022-08-25T17:38:36;22.10;97.10
51863;DHT22;37900;52.996;6.278;2022-08-25T17:41:06;22.10;97.10
51863;DHT22;37900;52.996;6.278;2022-08-25T17:43:34;22.10;97.10
51863;DHT22;37900;52.996;6.278;2022-08-25T17:46:01;22.10;97.10
51863;DHT22;37900;52.996;6.278;2022-08-25T17:48:27;22.10;97.10
51863;DHT22;37900;52.996;6.278;2022-08-25T17:50:54;22.10;97.20
51863;DHT22;37900;52.996;6.278;2022-08-25T17:53:20;22.10;97.20